createdAt,value
2023-03-23T15:57:53.083Z,2.40
2023-03-23T16:00:21.929Z,2.60
2023-03-23T16:02:53.070Z,2.47
2023-03-23T16:05:20.532Z,2.85
2023-03-23T16:07:47.989Z,2.60
2023-03-23T16:10:18.028Z,2.38
2023-03-23T16:12:45.942Z,2.30
2023-03-23T16:15:14.825Z,2.30
2023-03-23T16:17:42.485Z,2.42
2023-03-23T16:20:21.045Z,2.47
2023-03-23T16:22:48.580Z,2.08
2023-03-23T16:25:16.503Z,2.33
2023-03-23T16:27:44.504Z,2.42
2023-03-23T16:30:19.965Z,2.25
2023-03-23T16:32:47.394Z,2.33
2023-03-23T16:35:15.346Z,2.60
2023-03-23T16:37:47.059Z,2.55
2023-03-23T16:40:14.912Z,2.60
2023-03-23T16:42:42.464Z,2.40
2023-03-23T16:45:10.578Z,2.60
2023-03-23T16:47:38.453Z,2.65
2023-03-23T16:50:07.830Z,2.95
2023-03-23T16:52:35.312Z,2.42
2023-03-23T16:55:14.874Z,2.70
2023-03-23T16:57:43.487Z,2.65
2023-03-23T17:00:15.305Z,2.78
2023-03-23T17:02:43.250Z,2.55
2023-03-23T17:05:11.224Z,3.05
2023-03-23T17:07:39.355Z,2.80
2023-03-23T17:10:07.541Z,2.78
2023-03-23T17:12:35.057Z,2.95
2023-03-23T17:15:02.985Z,2.80
2023-03-23T17:17:30.477Z,2.80
2023-03-23T17:19:58.111Z,2.83
2023-03-23T17:22:25.777Z,2.70
2023-03-23T17:24:53.106Z,3.15
2023-03-23T17:27:21.255Z,3.60
2023-03-23T17:29:48.893Z,3.50
2023-03-23T17:32:16.306Z,3.13
2023-03-23T17:34:43.620Z,3.58
2023-03-23T17:37:11.192Z,3.40
2023-03-23T17:39:42.555Z,3.28
2023-03-23T17:42:11.114Z,3.65
2023-03-23T17:44:38.622Z,3.53
2023-03-23T17:47:06.381Z,3.83
2023-03-23T17:49:33.700Z,3.10
2023-03-23T17:52:01.076Z,2.70
2023-03-23T17:54:29.701Z,3.00
2023-03-23T17:57:03.817Z,2.85
2023-03-23T17:59:31.671Z,2.80
2023-03-23T18:01:59.071Z,2.95
2023-03-23T18:04:29.220Z,2.75
2023-03-23T18:06:56.763Z,2.80
2023-03-23T18:09:25.168Z,3.30
2023-03-23T18:11:53.004Z,3.20
2023-03-23T18:14:20.823Z,3.60
2023-03-23T18:16:48.447Z,3.40
2023-03-23T18:19:15.881Z,3.65
2023-03-23T18:21:45.740Z,3.95
2023-03-23T18:24:13.576Z,3.60
2023-03-23T18:26:41.888Z,4.38
2023-03-23T18:29:09.185Z,3.80
2023-03-23T18:31:40.079Z,4.00
2023-03-23T18:34:07.742Z,3.50
2023-03-23T18:36:35.362Z,3.60
2023-03-23T18:39:03.714Z,4.03
2023-03-23T18:41:31.156Z,3.38
2023-03-23T18:43:58.499Z,3.40
2023-03-23T18:46:26.434Z,3.30
2023-03-23T18:48:53.949Z,3.35
2023-03-23T18:51:21.341Z,3.80
2023-03-23T18:53:48.670Z,4.10
2023-03-23T18:56:17.191Z,4.05
2023-03-23T18:58:44.974Z,3.80
2023-03-23T19:01:14.694Z,3.65
2023-03-23T19:03:42.249Z,3.70
2023-03-23T19:06:26.957Z,4.47
2023-03-23T19:08:59.814Z,4.28
2023-03-23T19:11:27.505Z,4.50
2023-03-23T19:14:02.584Z,4.05
2023-03-23T19:16:32.286Z,3.92
2023-03-23T19:19:01.519Z,3.90
2023-03-23T19:21:31.516Z,4.22
2023-03-23T19:23:59.862Z,4.25
2023-03-23T19:26:35.835Z,3.92
2023-03-23T19:29:25.958Z,4.40
2023-03-23T19:31:55.539Z,3.60
2023-03-23T19:34:23.763Z,4.10
2023-03-23T19:36:56.296Z,3.42
2023-03-23T19:39:30.957Z,4.30
2023-03-23T19:41:58.589Z,4.15
2023-03-23T19:44:26.388Z,3.92
2023-03-23T19:46:54.057Z,4.00
2023-03-23T19:49:21.489Z,4.25
2023-03-23T19:51:49.017Z,3.80
2023-03-23T19:54:16.441Z,4.45
2023-03-23T19:56:43.838Z,4.00
2023-03-23T19:59:16.308Z,4.05
2023-03-23T20:01:44.304Z,3.80
2023-03-23T20:04:12.395Z,4.25
2023-03-23T20:06:39.991Z,4.35
2023-03-23T20:09:07.537Z,4.18
2023-03-23T20:11:35.187Z,4.43
2023-03-23T20:14:03.481Z,4.38
2023-03-23T20:16:31.318Z,4.50
2023-03-23T20:19:00.133Z,4.20
2023-03-23T20:21:28.205Z,4.65
2023-03-23T20:23:56.946Z,4.05
2023-03-23T20:26:35.941Z,4.00
2023-03-23T20:29:03.804Z,3.95
2023-03-23T20:31:36.822Z,4.43
2023-03-23T20:34:06.998Z,4.18
2023-03-23T20:36:42.275Z,4.65
2023-03-23T20:39:21.071Z,4.18
2023-03-23T20:41:50.828Z,3.92
2023-03-23T20:44:18.841Z,4.70
2023-03-23T20:46:47.643Z,4.75
2023-03-23T20:49:15.922Z,5.47
2023-03-23T20:51:44.807Z,4.90
2023-03-23T20:54:15.626Z,5.10
2023-03-23T20:56:46.985Z,4.53
2023-03-23T20:59:14.571Z,4.40
2023-03-23T21:01:42.051Z,4.15
2023-03-23T21:04:15.142Z,4.20
2023-03-23T21:06:43.546Z,4.60
2023-03-23T21:09:11.363Z,4.68
2023-03-23T21:11:42.367Z,4.78
2023-03-23T21:14:09.781Z,4.28
2023-03-23T21:16:37.107Z,4.95
2023-03-23T21:19:05.300Z,4.95
2023-03-23T21:21:34.141Z,4.55
2023-03-23T21:24:01.533Z,5.32
2023-03-23T21:26:29.928Z,4.95
2023-03-23T21:29:00.711Z,4.85
2023-03-23T21:31:30.511Z,4.68
2023-03-23T21:33:58.759Z,4.75
2023-03-23T21:36:27.395Z,4.65
2023-03-23T21:38:55.376Z,4.40
2023-03-23T21:41:22.904Z,4.78
2023-03-23T21:43:50.324Z,4.60
2023-03-23T21:46:18.229Z,4.93
2023-03-23T21:48:51.281Z,4.63
2023-03-23T21:51:27.304Z,4.78
2023-03-23T21:53:54.928Z,4.68
2023-03-23T21:56:23.668Z,4.55
2023-03-23T21:58:51.603Z,4.55
2023-03-23T22:01:19.467Z,4.68
2023-03-23T22:03:46.947Z,4.72
2023-03-23T22:06:21.034Z,4.55
2023-03-23T22:08:48.405Z,4.97
2023-03-23T22:11:18.471Z,5.20
2023-03-23T22:13:49.130Z,5.15
2023-03-23T22:16:20.738Z,4.55
2023-03-23T22:18:48.504Z,4.68
2023-03-23T22:21:16.603Z,5.05
2023-03-23T22:23:44.322Z,4.45
2023-03-23T22:26:12.167Z,4.75
2023-03-23T22:28:41.305Z,4.70
2023-03-23T22:31:14.253Z,4.38
2023-03-23T22:33:41.643Z,3.97
2023-03-23T22:36:09.562Z,4.43
2023-03-23T22:38:37.947Z,4.68
2023-03-23T22:41:07.134Z,4.38
2023-03-23T22:43:35.636Z,4.20
2023-03-23T22:46:03.908Z,4.50
2023-03-23T22:48:31.591Z,4.65
2023-03-23T22:50:59.081Z,4.40
2023-03-23T22:53:26.448Z,4.68
2023-03-23T22:55:54.999Z,4.60
2023-03-23T22:58:22.781Z,4.40
2023-03-23T23:00:52.074Z,5.00
2023-03-23T23:03:19.504Z,4.18
2023-03-23T23:05:50.317Z,4.47
2023-03-23T23:08:18.145Z,4.80
2023-03-23T23:10:46.764Z,4.95
2023-03-23T23:13:14.521Z,4.68
2023-03-23T23:15:43.725Z,4.15
2023-03-23T23:18:12.428Z,4.00
2023-03-23T23:20:41.061Z,4.20
2023-03-23T23:23:08.542Z,4.00
2023-03-23T23:25:36.453Z,4.05
2023-03-23T23:28:04.398Z,4.40
2023-03-23T23:30:32.127Z,4.22
2023-03-23T23:32:59.591Z,4.10
2023-03-23T23:35:27.054Z,3.92
2023-03-23T23:37:54.530Z,4.13
2023-03-23T23:40:21.911Z,3.90
2023-03-23T23:42:50.003Z,4.22
2023-03-23T23:45:18.125Z,4.22
2023-03-23T23:47:46.581Z,4.10
2023-03-23T23:50:14.552Z,3.95
2023-03-23T23:52:42.683Z,4.45
2023-03-23T23:55:11.513Z,4.03
2023-03-23T23:57:38.918Z,3.63
